createdAt,value
2018-09-05T00:00:09.846Z,100199.85
2018-09-05T00:02:39.685Z,100204.27
2018-09-05T00:05:10.283Z,100204.86
2018-09-05T00:07:40.554Z,100205.47
2018-09-05T00:10:10.641Z,100207.27
2018-09-05T00:12:40.595Z,100208.27
2018-09-05T00:15:10.770Z,100214.03
2018-09-05T00:17:40.671Z,100211.75
2018-09-05T00:20:10.518Z,100213.27
2018-09-05T00:22:40.701Z,100216.34
2018-09-05T00:25:10.810Z,100209.86
2018-09-05T00:27:40.740Z,100212.92
2018-09-05T00:30:10.774Z,100210.64
2018-09-05T00:32:41.000Z,100208.36
2018-09-05T00:35:11.246Z,100208.22
2018-09-05T00:37:41.754Z,100217.19
2018-09-05T00:40:12.037Z,100209.72
2018-09-05T00:42:41.994Z,100211.62
2018-09-05T00:45:11.824Z,100212.73
2018-09-05T00:47:41.589Z,100213.30
2018-09-05T00:50:11.752Z,100218.02
2018-09-05T00:52:41.802Z,100226.27
2018-09-05T00:55:11.622Z,100220.45
2018-09-05T00:57:41.477Z,100221.16
2018-09-05T01:00:11.521Z,100222.19
2018-09-05T01:02:41.432Z,100223.09
2018-09-05T01:05:11.557Z,100222.96
2018-09-05T01:07:41.420Z,100224.69
2018-09-05T01:10:11.512Z,100222.39
2018-09-05T01:12:41.662Z,100223.80
2018-09-05T01:15:11.617Z,100219.29
2018-09-05T01:17:41.690Z,100224.64
2018-09-05T01:20:11.653Z,100216.67
2018-09-05T01:22:41.496Z,100220.23
2018-09-05T01:25:11.671Z,100223.30
2018-09-05T01:27:41.615Z,100222.87
2018-09-05T01:30:11.616Z,100220.05
2018-09-05T01:32:42.054Z,100223.11
2018-09-05T01:35:11.785Z,100228.35
2018-09-05T01:37:41.706Z,100230.88
2018-09-05T01:40:11.589Z,100230.95
2018-09-05T01:42:41.609Z,100230.63
2018-09-05T01:45:11.712Z,100231.85
2018-09-05T01:47:43.764Z,100235.41
2018-09-05T01:50:13.914Z,100240.64
2018-09-05T01:52:43.705Z,100234.02
2018-09-05T01:55:13.502Z,100232.53
2018-09-05T01:57:43.565Z,100228.40
2018-09-05T02:00:17.444Z,100230.46
2018-09-05T02:02:47.703Z,100230.84
2018-09-05T02:05:17.428Z,100228.86
2018-09-05T02:07:47.713Z,100229.56
2018-09-05T02:10:17.544Z,100231.91
2018-09-05T02:12:47.395Z,100232.29
2018-09-05T02:15:17.677Z,100224.81
2018-09-05T02:17:47.502Z,100232.41
2018-09-05T02:20:18.051Z,100237.92
2018-09-05T02:22:48.226Z,100236.47
2018-09-05T02:25:18.294Z,100242.19
2018-09-05T02:27:48.233Z,100245.20
2018-09-05T02:30:18.066Z,100244.94
2018-09-05T02:32:48.384Z,100246.38
2018-09-05T02:35:18.199Z,100251.13
2018-09-05T02:37:48.618Z,100258.34
2018-09-05T02:40:18.487Z,100256.48
2018-09-05T02:42:48.264Z,100253.16
2018-09-05T02:46:09.958Z,100255.78
2018-09-05T02:48:40.076Z,100258.14
2018-09-05T02:51:09.950Z,100261.19
2018-09-05T02:53:39.816Z,100259.52
2018-09-05T02:56:09.703Z,100257.05
2018-09-05T02:58:40.047Z,100255.07
2018-09-05T03:01:09.842Z,100262.24
2018-09-05T03:03:39.809Z,100265.81
2018-09-05T03:06:09.653Z,100262.49
2018-09-05T03:08:39.622Z,100264.69
2018-09-05T03:11:09.670Z,100264.04
2018-09-05T03:13:39.598Z,100262.58
2018-09-05T03:16:09.608Z,100276.11
2018-09-05T03:18:40.057Z,100276.48
2018-09-05T03:21:09.906Z,100279.84
2018-09-05T03:23:40.071Z,100283.20
2018-09-05T03:26:09.874Z,100277.86
2018-09-05T03:28:39.915Z,100280.20
2018-09-05T03:31:09.654Z,100279.88
2018-09-05T03:33:39.489Z,100289.56
2018-09-05T03:36:09.573Z,100288.91
2018-09-05T03:38:39.446Z,100291.78
2018-09-05T03:41:09.572Z,100298.47
2018-09-05T03:43:39.357Z,100301.63
2018-09-05T03:46:09.550Z,100299.32
2018-09-05T03:48:39.753Z,100307.70
2018-09-05T03:51:12.513Z,100308.71
2018-09-05T03:53:42.792Z,100303.89
2018-09-05T03:56:12.561Z,100309.40
2018-09-05T03:58:42.409Z,100306.08
2018-09-05T04:01:13.966Z,100309.41
2018-09-05T04:03:43.714Z,100313.61
2018-09-05T04:06:17.605Z,100322.11
2018-09-05T04:08:47.434Z,100319.64
2018-09-05T04:11:17.520Z,100314.45
2018-09-05T04:13:47.597Z,100324.50
2018-09-05T04:16:17.432Z,100322.02
2018-09-05T04:18:47.692Z,100324.86
2018-09-05T04:21:17.611Z,100322.37
2018-09-05T04:23:49.226Z,100325.87
2018-09-05T04:26:20.169Z,100326.88
2018-09-05T04:28:50.459Z,100333.55
2018-09-05T04:31:20.493Z,100338.90
2018-09-05T04:33:50.537Z,100341.41
2018-09-05T04:36:20.768Z,100336.55
2018-09-05T04:38:50.644Z,100341.57
2018-09-05T04:41:20.670Z,100345.09
2018-09-05T04:43:50.591Z,100346.59
2018-09-05T04:46:20.753Z,100344.77
2018-09-05T04:48:50.780Z,100346.91
2018-09-05T04:51:20.492Z,100355.25
2018-09-05T04:53:54.628Z,100357.92
2018-09-05T04:56:24.601Z,100358.25
2018-09-05T04:58:55.401Z,100354.56
2018-09-05T05:01:25.661Z,100362.74
2018-09-05T05:03:55.458Z,100363.39
2018-09-05T05:06:25.532Z,100368.38
2018-09-05T05:08:55.265Z,100369.19
2018-09-05T05:11:25.717Z,100365.34
2018-09-05T06:09:59.258Z,100400.55
2018-09-05T06:12:28.992Z,100399.58
2018-09-05T06:14:59.181Z,100396.44
2018-09-05T06:17:29.181Z,100406.65
2018-09-05T06:19:59.073Z,100404.94
2018-09-05T06:22:29.644Z,100408.75
2018-09-05T06:24:59.415Z,100407.56
2018-09-05T06:27:29.573Z,100408.64
2018-09-05T06:29:59.300Z,100410.08
2018-09-05T06:32:29.104Z,100412.00
2018-09-05T06:34:59.129Z,100410.11
2018-09-05T06:37:29.141Z,100411.33
2018-09-05T06:39:59.256Z,100412.09
2018-09-05T06:42:29.398Z,100411.16
2018-09-05T06:44:59.259Z,100411.16
2018-09-05T06:47:29.250Z,100415.48
2018-09-05T06:49:59.056Z,100415.07
2018-09-05T06:52:29.418Z,100412.20
2018-09-05T06:54:59.204Z,100406.38
2018-09-05T06:57:29.237Z,100411.61
2018-09-05T06:59:59.274Z,100408.37
2018-09-05T07:02:29.669Z,100414.80
2018-09-05T07:04:59.685Z,100417.86
2018-09-05T07:07:29.792Z,100420.22
2018-09-05T07:09:59.639Z,100416.69
2018-09-05T07:12:29.675Z,100421.59
2018-09-05T07:14:59.876Z,100422.78
2018-09-05T07:17:30.136Z,100422.77
2018-09-05T07:20:00.045Z,100419.61
2018-09-05T07:22:32.057Z,100422.13
2018-09-05T07:25:02.101Z,100416.50
2018-09-05T07:27:32.181Z,100423.36
2018-09-05T07:30:02.337Z,100413.62
2018-09-05T07:32:32.660Z,100420.17
2018-09-05T07:35:02.493Z,100420.36
2018-09-05T07:37:32.283Z,100421.37
2018-09-05T07:40:02.111Z,100419.65
2018-09-05T07:42:32.328Z,100413.06
2018-09-05T07:45:02.286Z,100411.33
2018-09-05T07:47:32.147Z,100415.17
2018-09-05T07:50:02.417Z,100418.26
2018-09-05T07:52:32.152Z,100419.19
2018-09-05T07:55:02.055Z,100423.34
2018-09-05T07:57:32.175Z,100419.12
2018-09-05T08:00:02.246Z,100421.30
2018-09-05T08:02:32.076Z,100421.29
2018-09-05T08:05:02.185Z,100414.84
2018-09-05T08:07:32.079Z,100417.23
2018-09-05T08:10:02.226Z,100424.16
2018-09-05T08:12:32.168Z,100422.47
2018-09-05T08:15:02.248Z,100427.01
2018-09-05T08:17:32.290Z,100419.42
2018-09-05T08:20:02.122Z,100419.17
2018-09-05T08:22:32.237Z,100417.10
2018-09-05T08:25:02.052Z,100413.72
2018-09-05T08:27:32.005Z,100418.23
2018-09-05T08:30:02.128Z,100412.16
2018-09-05T08:32:32.029Z,100410.88
2018-09-05T08:35:02.284Z,100411.15
2018-09-05T08:37:32.389Z,100409.64
2018-09-05T08:40:02.397Z,100413.56
2018-09-05T08:42:34.390Z,100412.28
2018-09-05T08:45:04.938Z,100409.45
2018-09-05T08:47:35.141Z,100409.60
2018-09-05T08:50:05.482Z,100410.95
2018-09-05T08:52:35.397Z,100404.19
2018-09-05T08:55:05.340Z,100405.83
2018-09-05T08:57:35.387Z,100408.13
2018-09-05T09:00:05.673Z,100409.82
2018-09-05T09:02:35.456Z,100407.61
2018-09-05T09:05:05.638Z,100398.12
2018-09-05T09:07:35.818Z,100394.03
2018-09-05T09:10:06.812Z,100396.40
2018-09-05T09:12:36.723Z,100394.61
2018-09-05T09:15:07.080Z,100392.52
2018-09-05T09:17:37.179Z,100385.31
2018-09-05T09:20:07.198Z,100390.93
2018-09-05T09:22:37.386Z,100390.94
2018-09-05T09:25:07.230Z,100393.51
2018-09-05T09:27:37.282Z,100388.89
2018-09-05T09:30:07.436Z,100388.84
2018-09-05T09:32:37.438Z,100379.58
2018-09-05T09:35:07.561Z,100380.77
2018-09-05T09:37:37.760Z,100385.47
2018-09-05T09:40:07.916Z,100385.20
2018-09-05T09:42:38.174Z,100380.45
2018-09-05T09:45:08.771Z,100376.53
2018-09-05T09:47:39.038Z,100370.08
2018-09-05T09:50:08.935Z,100365.33
2018-09-05T09:52:39.480Z,100365.89
2018-09-05T09:55:10.005Z,100367.51
2018-09-05T09:57:39.832Z,100367.99
2018-09-05T10:00:10.247Z,100363.81
2018-09-05T10:02:44.872Z,100366.36
2018-09-05T10:05:19.836Z,100361.85
2018-09-05T10:07:55.033Z,100370.98
2018-09-05T10:10:30.356Z,100367.65
2018-09-05T10:13:05.261Z,100376.06
2018-09-05T10:16:40.768Z,100361.14
2018-09-05T10:19:12.073Z,100367.09
2018-09-05T10:21:42.051Z,100363.19
2018-09-05T10:24:12.818Z,100358.42
2018-09-05T10:26:42.561Z,100357.51
2018-09-05T10:29:12.337Z,100357.00
2018-09-05T10:31:42.189Z,100356.55
2018-09-05T10:34:12.222Z,100358.85
2018-09-05T10:36:42.413Z,100360.25
2018-09-05T10:39:12.452Z,100350.58
2018-09-05T10:41:42.566Z,100356.67
2018-09-05T10:44:12.421Z,100351.92
2018-09-05T10:46:42.336Z,100350.02
2018-09-05T10:49:12.273Z,100346.98
2018-09-05T10:51:47.418Z,100346.16
2018-09-05T10:54:17.553Z,100348.72
2018-09-05T10:56:47.268Z,100350.23
2018-09-05T10:59:17.042Z,100349.38
2018-09-05T11:01:47.313Z,100346.49
2018-09-05T11:04:17.077Z,100344.97
2018-09-05T11:06:47.438Z,100354.27
2018-09-05T11:09:17.190Z,100348.54
2018-09-05T11:11:47.026Z,100347.52
2018-09-05T11:14:17.955Z,100346.73
2018-09-05T11:16:47.976Z,100343.05
2018-09-05T11:19:18.462Z,100341.22
2018-09-05T11:21:48.202Z,100343.22
2018-09-05T11:24:18.147Z,100342.75
2018-09-05T11:26:48.133Z,100333.90
2018-09-05T11:29:18.070Z,100331.87
2018-09-05T11:31:48.332Z,100329.73
2018-09-05T11:34:18.101Z,100328.02
2018-09-05T11:36:48.081Z,100335.19
2018-09-05T11:39:18.329Z,100328.70
2018-09-05T11:41:48.084Z,100332.84
2018-09-05T11:44:18.275Z,100337.33
2018-09-05T11:46:48.119Z,100336.34
2018-09-05T11:49:18.074Z,100330.40
2018-09-05T11:51:48.060Z,100333.28
2018-09-05T11:54:18.066Z,100316.40
2018-09-05T11:56:48.925Z,100315.33
2018-09-05T11:59:18.944Z,100323.73
2018-09-05T12:01:49.063Z,100317.61
2018-09-05T12:04:19.261Z,100316.73
2018-09-05T12:06:49.132Z,100322.22
2018-09-05T12:09:19.062Z,100318.46
2018-09-05T12:11:49.113Z,100310.95
2018-09-05T12:14:18.945Z,100315.00
2018-09-05T12:16:49.225Z,100313.52
2018-09-05T12:19:19.071Z,100316.25
2018-09-05T12:21:49.045Z,100308.24
2018-09-05T12:24:19.163Z,100305.45
2018-09-05T12:26:49.370Z,100309.64
2018-09-05T12:29:19.482Z,100308.03
2018-09-05T12:31:49.277Z,100307.90
2018-09-05T12:34:19.048Z,100303.42
2018-09-05T12:36:49.321Z,100304.23
2018-09-05T12:39:19.122Z,100307.23
2018-09-05T12:41:49.085Z,100302.83
2018-09-05T12:44:19.234Z,100299.78
2018-09-05T12:46:49.085Z,100304.19
2018-09-05T12:49:19.050Z,100298.61
2018-09-05T12:51:49.141Z,100296.77
2018-09-05T12:54:19.249Z,100300.09
2018-09-05T12:56:49.133Z,100300.88
2018-09-05T12:59:19.094Z,100293.00
2018-09-05T13:01:49.093Z,100289.61
2018-09-05T13:04:19.424Z,100297.06
2018-09-05T13:06:49.256Z,100291.33
2018-09-05T13:09:19.476Z,100285.08
2018-09-05T13:11:49.202Z,100286.14
2018-09-05T13:14:19.538Z,100276.20
2018-09-05T13:16:49.366Z,100282.63
2018-09-05T13:19:19.189Z,100278.93
2018-09-05T13:21:49.151Z,100279.12
2018-09-05T13:24:19.099Z,100278.36
2018-09-05T13:26:49.085Z,100280.58
2018-09-05T13:29:19.262Z,100283.45
2018-09-05T13:31:49.303Z,100280.63
2018-09-05T13:34:19.128Z,100279.17
2018-09-05T13:36:49.230Z,100284.98
2018-09-05T13:39:19.187Z,100277.27
2018-09-05T13:41:49.461Z,100273.98
2018-09-05T13:44:19.525Z,100270.52
2018-09-05T13:46:49.739Z,100271.37
2018-09-05T13:49:19.674Z,100273.34
2018-09-05T13:51:54.499Z,100273.02
2018-09-05T13:54:24.533Z,100264.61
2018-09-05T13:56:54.292Z,100266.23
2018-09-05T13:59:24.158Z,100264.88
2018-09-05T14:01:54.097Z,100259.95
2018-09-05T14:04:24.312Z,100262.16
2018-09-05T14:06:54.904Z,100263.77
2018-09-05T14:09:24.974Z,100264.34
2018-09-05T14:12:57.748Z,100267.23
2018-09-05T14:15:27.497Z,100262.86
2018-09-05T14:17:57.552Z,100264.00
2018-09-05T14:20:27.541Z,100259.12
2018-09-05T14:22:57.520Z,100258.33
2018-09-05T14:25:27.440Z,100262.39
2018-09-05T14:27:57.159Z,100258.03
2018-09-05T14:30:27.080Z,100255.84
2018-09-05T14:32:56.886Z,100256.61
2018-09-05T14:35:26.787Z,100263.02
2018-09-05T14:37:56.817Z,100255.39
2018-09-05T14:40:26.534Z,100256.90
2018-09-05T14:42:56.220Z,100253.85
2018-09-05T14:45:26.093Z,100260.13
2018-09-05T14:47:55.998Z,100259.11
2018-09-05T14:50:26.214Z,100263.10
2018-09-05T14:52:56.046Z,100253.91
2018-09-05T14:55:26.087Z,100260.05
2018-09-05T14:57:56.271Z,100254.14
2018-09-05T15:00:25.948Z,100256.97
2018-09-05T15:02:55.987Z,100257.55
2018-09-05T15:05:26.162Z,100264.64
2018-09-05T15:07:56.011Z,100255.09
2018-09-05T15:10:26.173Z,100258.81
2018-09-05T15:12:55.965Z,100257.81
2018-09-05T15:15:25.920Z,100258.06
2018-09-05T15:17:55.985Z,100255.98
2018-09-05T15:20:26.117Z,100252.90
2018-09-05T15:22:56.021Z,100257.65
2018-09-05T15:25:26.160Z,100254.42
2018-09-05T15:27:56.019Z,100250.56
2018-09-05T15:30:26.402Z,100255.08
2018-09-05T15:32:56.100Z,100253.44
2018-09-05T15:35:25.998Z,100254.95
2018-09-05T15:37:56.117Z,100257.17
2018-09-05T15:40:26.070Z,100255.87
2018-09-05T15:42:56.085Z,100253.66
2018-09-05T15:45:26.096Z,100240.87
2018-09-05T15:47:56.226Z,100254.20
2018-09-05T15:50:26.255Z,100256.77
2018-09-05T15:52:56.246Z,100245.97
2018-09-05T15:55:26.175Z,100251.86
2018-09-05T15:57:55.964Z,100250.81
2018-09-05T16:00:26.325Z,100257.97
2018-09-05T16:02:56.032Z,100252.32
2018-09-05T16:05:26.352Z,100250.44
2018-09-05T16:07:56.126Z,100257.31
2018-09-05T16:10:25.959Z,100257.92
2018-09-05T16:12:56.117Z,100260.72
2018-09-05T16:15:26.103Z,100256.87
2018-09-05T16:17:56.053Z,100253.84
2018-09-05T16:20:26.257Z,100252.75
2018-09-05T16:22:55.956Z,100256.36
2018-09-05T16:25:26.056Z,100261.51
2018-09-05T16:27:56.062Z,100257.70
2018-09-05T16:30:26.051Z,100261.37
2018-09-05T16:32:56.032Z,100260.48
2018-09-05T16:35:26.223Z,100266.59
2018-09-05T16:37:56.337Z,100264.97
2018-09-05T16:40:33.820Z,100265.06
2018-09-05T16:43:03.607Z,100265.30
2018-09-05T16:45:33.329Z,100266.84
2018-09-05T16:48:03.048Z,100264.45
2018-09-05T16:50:33.005Z,100263.37
2018-09-05T16:53:03.137Z,100262.80
2018-09-05T16:55:33.233Z,100260.87
2018-09-05T16:58:03.029Z,100264.89
2018-09-05T17:00:33.027Z,100254.75
2018-09-05T17:03:03.061Z,100261.44
2018-09-05T17:05:33.057Z,100261.88
2018-09-05T17:08:03.321Z,100264.55
2018-09-05T17:10:33.022Z,100267.97
2018-09-05T17:13:03.179Z,100270.03
2018-09-05T17:15:33.287Z,100273.41
2018-09-05T17:18:03.297Z,100279.20
2018-09-05T17:20:33.215Z,100280.98
2018-09-05T17:23:02.914Z,100273.19
2018-09-05T17:25:32.633Z,100275.14
2018-09-05T17:28:02.805Z,100272.55
2018-09-05T17:30:32.526Z,100275.91
2018-09-05T17:33:02.848Z,100271.66
2018-09-05T17:35:32.545Z,100272.06
2018-09-05T17:38:02.901Z,100279.80
2018-09-05T17:40:32.695Z,100280.69
2018-09-05T17:43:02.403Z,100276.92
2018-09-05T17:45:33.325Z,100280.57
2018-09-05T17:48:04.027Z,100279.15
2018-09-05T17:50:35.019Z,100282.47
2018-09-05T17:53:05.770Z,100286.62
2018-09-05T17:55:37.315Z,100286.12
2018-09-05T17:58:08.137Z,100287.52
2018-09-05T18:00:39.305Z,100291.37
2018-09-05T18:03:10.097Z,100294.92
2018-09-05T18:05:41.013Z,100291.98
2018-09-05T18:08:11.879Z,100293.52
2018-09-05T18:10:43.816Z,100293.36
2018-09-05T18:13:14.097Z,100296.09
2018-09-05T18:15:51.422Z,100298.09
2018-09-05T18:18:22.150Z,100294.64
2018-09-05T18:20:52.386Z,100297.10
2018-09-05T18:23:22.146Z,100293.68
2018-09-05T18:25:51.958Z,100295.03
2018-09-05T18:28:22.201Z,100296.59
2018-09-05T18:30:52.024Z,100298.19
2018-09-05T18:33:21.913Z,100296.87
2018-09-05T18:35:52.827Z,100300.67
2018-09-05T18:38:24.402Z,100302.97
2018-09-05T18:40:56.338Z,100307.94
2018-09-05T18:43:26.344Z,100311.11
2018-09-05T18:45:57.768Z,100306.47
2018-09-05T18:48:28.380Z,100314.97
2018-09-05T18:50:58.961Z,100311.73
2018-09-05T18:53:29.870Z,100305.58
2018-09-05T18:56:01.267Z,100309.09
2018-09-05T18:58:32.746Z,100309.38
2018-09-05T19:01:02.992Z,100313.55
2018-09-05T19:03:33.861Z,100316.08
2018-09-05T19:06:04.894Z,100318.92
2018-09-05T19:08:37.014Z,100316.30
2018-09-05T19:11:06.727Z,100312.68
2018-09-05T19:13:38.156Z,100311.81
2018-09-05T19:16:08.880Z,100305.14
2018-09-05T19:18:45.748Z,100304.03
2018-09-05T19:21:15.662Z,100306.09
2018-09-05T19:23:45.505Z,100306.67
2018-09-05T19:26:15.244Z,100300.27
2018-09-05T19:28:44.957Z,100303.84
2018-09-05T19:31:15.861Z,100306.25
2018-09-05T19:33:45.836Z,100305.91
2018-09-05T19:36:17.497Z,100308.13
2018-09-05T19:38:48.080Z,100305.37
2018-09-05T19:41:19.251Z,100299.50
2018-09-05T19:43:50.161Z,100300.23
2018-09-05T19:46:21.235Z,100293.65
2018-09-05T19:48:52.402Z,100304.23
2018-09-05T19:51:24.009Z,100307.98
2018-09-05T19:53:54.049Z,100306.38
2018-09-05T19:56:24.834Z,100306.50
2018-09-05T19:58:56.452Z,100301.31
2018-09-05T20:01:27.952Z,100305.59
2018-09-05T20:03:59.996Z,100288.63
2018-09-05T20:06:29.818Z,100297.86
2018-09-05T20:09:00.458Z,100292.48
2018-09-05T20:11:31.068Z,100292.91
2018-09-05T20:14:02.537Z,100295.13
2018-09-05T20:16:34.148Z,100294.70
2018-09-05T20:19:04.164Z,100298.92
2018-09-05T20:21:40.918Z,100294.77
2018-09-05T20:24:11.001Z,100292.56
2018-09-05T20:26:40.787Z,100284.28
2018-09-05T20:29:10.621Z,100293.78
2018-09-05T20:31:40.535Z,100282.27
2018-09-05T20:34:10.815Z,100279.58
2018-09-05T20:36:40.827Z,100288.94
2018-09-05T20:39:12.248Z,100279.83
2018-09-05T20:41:42.561Z,100280.87
2018-09-05T20:44:19.496Z,100282.03
2018-09-05T20:46:50.118Z,100274.55
2018-09-05T20:49:19.881Z,100279.17
2018-09-05T20:51:49.985Z,100278.75
2018-09-05T20:54:19.849Z,100275.39
2018-09-05T20:56:49.611Z,100276.94
2018-09-05T20:59:19.616Z,100282.52
2018-09-05T21:01:50.123Z,100274.14
2018-09-05T21:04:21.059Z,100276.84
2018-09-05T21:06:52.001Z,100273.30
2018-09-05T21:09:23.148Z,100276.37
2018-09-05T21:11:54.837Z,100275.44
2018-09-05T21:14:25.268Z,100278.10
2018-09-05T21:16:56.049Z,100277.39
2018-09-05T21:19:27.661Z,100273.95
2018-09-05T21:21:58.317Z,100274.58
2018-09-05T21:24:29.351Z,100259.15
2018-09-05T21:27:00.400Z,100271.42
2018-09-05T21:29:31.095Z,100270.70
2018-09-05T21:32:01.635Z,100261.89
2018-09-05T21:34:32.206Z,100263.42
2018-09-05T21:37:03.390Z,100258.67
2018-09-05T21:39:34.162Z,100261.94
2018-09-05T21:42:05.194Z,100263.27
2018-09-05T21:44:36.587Z,100260.64
2018-09-05T21:47:07.264Z,100263.42
2018-09-05T21:49:38.118Z,100261.13
2018-09-05T21:52:09.046Z,100258.84
2018-09-05T21:54:39.845Z,100265.64
2018-09-05T21:57:11.153Z,100261.07
2018-09-05T21:59:42.350Z,100261.02
2018-09-05T22:02:13.603Z,100255.33
2018-09-05T22:04:44.141Z,100261.81
2018-09-05T22:07:14.918Z,100262.30
2018-09-05T22:09:47.020Z,100260.19
2018-09-05T22:12:17.097Z,100261.11
2018-09-05T22:14:48.475Z,100257.98
2018-09-05T22:17:19.006Z,100253.86
2018-09-05T22:19:49.991Z,100256.09
2018-09-05T22:22:21.441Z,100255.53
2018-09-05T22:24:52.373Z,100257.97
2018-09-05T22:27:22.917Z,100254.98
2018-09-05T22:29:56.130Z,100247.72
2018-09-05T22:32:26.045Z,100253.08
2018-09-05T22:34:55.931Z,100244.41
2018-09-05T22:37:27.070Z,100251.81
2018-09-05T22:39:57.921Z,100253.23
2018-09-05T22:42:28.897Z,100245.27
2018-09-05T22:45:10.248Z,100245.30
2018-09-05T22:47:54.840Z,100243.02
2018-09-05T22:51:36.725Z,100243.41
2018-09-05T22:55:26.302Z,100239.84
2018-09-05T22:59:04.166Z,100240.30
2018-09-05T23:01:41.674Z,100245.73
2018-09-05T23:05:27.045Z,100233.04
2018-09-05T23:08:43.775Z,100236.00
2018-09-05T23:11:24.082Z,100233.70
2018-09-05T23:15:06.815Z,100230.07
2018-09-05T23:18:47.201Z,100230.95
2018-09-05T23:21:20.430Z,100225.03
2018-09-05T23:23:55.434Z,100222.73
2018-09-05T23:26:25.533Z,100220.44
2018-09-05T23:28:55.368Z,100219.28
2018-09-05T23:31:25.752Z,100219.87
2018-09-05T23:33:55.953Z,100215.92
2018-09-05T23:36:26.454Z,100216.94
2018-09-05T23:38:56.280Z,100217.00
2018-09-05T23:41:26.092Z,100218.52
2018-09-05T23:43:56.134Z,100213.23
2018-09-05T23:46:26.365Z,100213.12
2018-09-05T23:48:56.289Z,100216.49
2018-09-05T23:51:26.101Z,100212.22
2018-09-05T23:53:56.122Z,100215.07
2018-09-05T23:56:26.657Z,100210.63
2018-09-05T23:58:56.438Z,100215.02
